Time;durP1;ratioP1;P1;durP2;ratioP2;P2;SDS_P1;SDS_P2;PMS_P1;PMS_P2;Temp;Humidity;BMP_temperature;BMP_pressure;BME280_temperature;BME280_humidity;BME280_pressure;Samples;Min_cycle;Max_cycle;Signal;HPM_P1;HPM_P2
2022/08/02 00:00:19;;;;;;;3.22;1.10;;;;;;;23.51;88.79;100639.44;5051403;28;20029;-81
2022/08/02 00:02:46;;;;;;;2.85;1.50;;;;;;;23.39;90.57;100640.91;5051418;28;20080;-82
2022/08/02 00:05:12;;;;;;;1.60;1.15;;;;;;;23.42;90.16;100644.06;5051213;28;20025;-82
2022/08/02 00:07:38;;;;;;;5.88;1.15;;;;;;;23.39;90.49;100646.28;5051096;28;20039;-83
2022/08/02 00:10:05;;;;;;;2.70;1.20;;;;;;;23.37;90.58;100649.13;5054127;28;20090;-82
2022/08/02 00:12:30;;;;;;;2.33;0.95;;;;;;;23.34;90.96;100636.09;5054138;28;20021;-82
2022/08/02 00:14:56;;;;;;;5.50;1.20;;;;;;;23.25;91.38;100645.25;5054713;28;20391;-82
2022/08/02 00:17:21;;;;;;;4.82;1.52;;;;;;;23.36;91.71;100637.59;5053732;28;20028;-81
2022/08/02 00:19:47;;;;;;;4.55;1.10;;;;;;;22.99;94.39;100632.22;5054534;28;20025;-81
2022/08/02 00:22:12;;;;;;;2.97;1.27;;;;;;;23.23;94.05;100626.66;5054762;28;20074;-82
2022/08/02 00:24:38;;;;;;;2.03;0.95;;;;;;;23.38;92.70;100636.56;5053072;28;20114;-82
2022/08/02 00:27:03;;;;;;;2.88;1.52;;;;;;;23.44;92.47;100628.66;5066137;28;20040;-82
2022/08/02 00:29:29;;;;;;;1.65;1.25;;;;;;;23.47;92.60;100624.75;5061161;28;20032;-82
2022/08/02 00:31:55;;;;;;;1.67;1.13;;;;;;;23.25;94.49;100618.44;5074492;28;20017;-82
2022/08/02 00:34:21;;;;;;;3.25;1.33;;;;;;;23.30;93.69;100622.25;5074278;28;20024;-82
2022/08/02 00:36:46;;;;;;;1.83;1.13;;;;;;;23.39;94.17;100622.16;5074058;28;20374;-82
2022/08/02 00:39:11;;;;;;;3.08;1.50;;;;;;;23.19;95.11;100620.00;5074108;28;20040;-82
2022/08/02 00:41:47;;;;;;;8.90;1.73;;;;;;;23.02;97.59;100618.44;5074135;28;20017;-82
2022/08/02 00:44:16;;;;;;;3.40;1.33;;;;;;;23.24;95.83;100609.56;5053827;28;20399;-82
2022/08/02 00:46:42;;;;;;;2.17;1.23;;;;;;;23.37;95.04;100616.97;5073825;28;20043;-81
2022/08/02 00:49:08;;;;;;;2.83;1.90;;;;;;;22.78;98.39;100606.94;5074086;28;20025;-81
2022/08/02 00:51:33;;;;;;;3.50;1.80;;;;;;;22.87;99.00;100610.38;5073784;28;20054;-81
2022/08/02 00:53:59;;;;;;;5.47;1.40;;;;;;;23.09;97.33;100612.22;5074062;28;20052;-81
2022/08/02 00:56:24;;;;;;;7.82;2.72;;;;;;;23.22;96.83;100606.22;5071576;28;20037;-82
2022/08/02 00:58:49;;;;;;;2.35;1.60;;;;;;;23.25;96.59;100607.72;5071425;28;20081;-81
2022/08/02 01:01:15;;;;;;;3.45;1.50;;;;;;;23.46;95.73;100602.50;5074073;28;20063;-81
2022/08/02 01:03:40;;;;;;;4.72;1.75;;;;;;;23.13;97.60;100594.78;5073661;28;20063;-81
2022/08/02 01:06:06;;;;;;;3.70;1.95;;;;;;;23.26;97.10;100599.53;5073592;28;20028;-82
2022/08/02 01:08:31;;;;;;;3.78;1.33;;;;;;;23.27;97.49;100589.63;5073587;28;20032;-81
2022/08/02 01:10:57;;;;;;;4.22;1.30;;;;;;;23.42;96.41;100592.31;5073560;28;20432;-81
2022/08/02 01:13:23;;;;;;;5.32;1.67;;;;;;;23.52;95.61;100577.63;5054503;28;20463;-82
2022/08/02 01:15:59;;;;;;;3.03;1.60;;;;;;;23.30;97.54;100586.56;5053668;28;20514;-82
2022/08/02 01:18:34;;;;;;;2.50;1.60;;;;;;;23.48;96.29;100588.88;5053389;28;20064;-81
2022/08/02 01:21:24;;;;;;;3.08;1.55;;;;;;;23.28;98.25;100581.41;5053270;28;20028;-82
2022/08/02 01:24:27;;;;;;;3.45;1.70;;;;;;;23.43;97.38;100594.81;5053278;28;20104;-81
2022/08/02 01:27:19;;;;;;;4.07;1.60;;;;;;;23.47;97.12;100576.53;5061214;28;20039;-81
2022/08/02 01:29:52;;;;;;;2.97;1.40;;;;;;;23.43;97.61;100577.91;5073039;28;20035;-81
2022/08/02 01:32:24;;;;;;;3.30;1.45;;;;;;;23.45;97.59;100570.53;5067108;28;20130;-82
2022/08/02 01:34:55;;;;;;;2.40;1.50;;;;;;;23.28;98.11;100583.25;5053021;28;20078;-81
2022/08/02 01:37:28;;;;;;;3.75;1.65;;;;;;;23.14;99.03;100584.88;5052961;28;20028;-82
2022/08/02 01:39:58;;;;;;;2.55;1.48;;;;;;;23.33;98.50;100579.00;5052977;28;20021;-81
2022/08/02 01:42:25;;;;;;;3.80;1.75;;;;;;;23.34;97.72;100580.69;5068473;28;20032;-81
2022/08/02 01:44:52;;;;;;;2.65;1.60;;;;;;;23.33;98.57;100584.34;5071515;28;20032;-81
2022/08/02 01:47:27;;;;;;;7.70;1.80;;;;;;;23.30;99.25;100584.75;5071891;28;20045;-81
2022/08/02 01:49:55;;;;;;;2.25;1.20;;;;;;;23.38;98.46;100585.66;5072546;28;20020;-82
2022/08/02 01:52:25;;;;;;;4.60;1.67;;;;;;;23.22;99.59;100571.41;5072746;28;20494;-82
2022/08/02 01:54:59;;;;;;;2.78;1.05;;;;;;;23.46;98.19;100582.88;5071446;28;20029;-81
2022/08/02 01:57:28;;;;;;;2.80;1.63;;;;;;;23.19;99.68;100569.13;5052584;28;20039;-82
2022/08/02 01:59:56;;;;;;;3.58;1.70;;;;;;;23.30;99.32;100579.38;5051940;28;20075;-81
2022/08/02 02:02:23;;;;;;;2.42;1.52;;;;;;;23.21;99.23;100567.09;5051432;28;20032;-82
2022/08/02 02:04:50;;;;;;;5.45;1.90;;;;;;;23.13;99.76;100565.31;5052705;28;20029;-82
2022/08/02 02:07:18;;;;;;;3.42;1.73;;;;;;;23.20;99.54;100560.03;5052323;28;20104;-82
2022/08/02 02:09:45;;;;;;;2.78;1.70;;;;;;;23.15;99.97;100560.59;5054300;28;20033;-81
2022/08/02 02:12:12;;;;;;;4.45;1.90;;;;;;;23.33;99.44;100562.94;5072096;28;20069;-82
2022/08/02 02:14:39;;;;;;;4.25;1.80;;;;;;;23.33;99.23;100562.94;5072274;28;20029;-82
2022/08/02 02:17:07;;;;;;;4.57;1.60;;;;;;;23.15;99.61;100554.44;5071228;28;20493;-81
2022/08/02 02:19:35;;;;;;;4.70;1.75;;;;;;;23.10;100.00;100551.44;5072321;28;20031;-81
2022/08/02 02:22:01;;;;;;;2.35;1.80;;;;;;;23.27;99.22;100552.94;5072163;28;20024;-82
2022/08/02 02:24:26;;;;;;;3.58;1.85;;;;;;;23.36;98.97;100557.22;5070375;28;20020;-81
2022/08/02 02:26:52;;;;;;;7.28;1.95;;;;;;;23.14;99.72;100542.03;5051976;28;20093;-81
2022/08/02 02:29:20;;;;;;;3.08;1.70;;;;;;;23.35;99.12;100547.50;5051967;28;20025;-81
2022/08/02 02:31:48;;;;;;;5.20;1.40;;;;;;;23.42;98.74;100546.75;5050926;28;20447;-81
2022/08/02 02:34:15;;;;;;;4.60;1.55;;;;;;;23.17;99.45;100541.69;5051990;28;20471;-81
2022/08/02 02:36:47;;;;;;;2.05;1.45;;;;;;;23.19;100.00;100539.66;5052198;28;20097;-81
2022/08/02 02:39:14;;;;;;;3.80;1.83;;;;;;;23.40;99.12;100538.06;5052557;28;20358;-81
2022/08/02 02:41:42;;;;;;;3.55;1.63;;;;;;;22.90;100.00;100541.22;5071902;28;20036;-81
2022/08/02 02:44:12;;;;;;;4.60;1.30;;;;;;;23.19;100.00;100539.66;5071849;28;20025;-81
2022/08/02 02:46:39;;;;;;;4.97;1.88;;;;;;;22.85;100.00;100530.25;5071712;28;20036;-81
2022/08/02 02:49:05;;;;;;;4.50;1.92;;;;;;;22.70;100.00;100537.41;5070377;28;20537;-81
2022/08/02 02:51:32;;;;;;;6.15;1.98;;;;;;;23.03;100.00;100535.28;5069165;28;20047;-81
2022/08/02 02:53:58;;;;;;;6.57;2.13;;;;;;;23.18;100.00;100529.94;5051695;28;20108;-81
2022/08/02 02:56:24;;;;;;;5.65;1.80;;;;;;;22.94;100.00;100525.63;5052010;28;20479;-81
2022/08/02 02:58:51;;;;;;;6.65;1.67;;;;;;;23.08;100.00;100526.69;5052402;28;20414;-82
2022/08/02 03:01:32;;;;;;;4.85;2.03;;;;;;;23.14;100.00;100523.28;5051671;28;20035;-81
2022/08/02 03:04:02;;;;;;;6.63;2.95;;;;;;;23.06;100.00;100520.69;5055274;28;20063;-82
2022/08/02 03:06:29;;;;;;;5.70;1.63;;;;;;;22.82;100.00;100527.91;5070709;28;20467;-81
2022/08/02 03:08:54;;;;;;;5.75;1.90;;;;;;;22.89;100.00;100518.16;5071696;28;20229;-82
2022/08/02 03:11:21;;;;;;;3.22;2.15;;;;;;;23.18;100.00;100516.53;5071983;28;20182;-81
2022/08/02 03:13:47;;;;;;;6.93;1.67;;;;;;;22.87;100.00;100520.19;5071833;28;20386;-81
2022/08/02 03:16:13;;;;;;;6.60;2.00;;;;;;;23.02;100.00;100516.69;5071720;28;20031;-81
2022/08/02 03:18:41;;;;;;;4.38;2.47;;;;;;;23.06;100.00;100512.66;5068285;28;20394;-81
2022/08/02 03:21:12;;;;;;;6.13;2.35;;;;;;;22.99;100.00;100514.41;5050844;28;20075;-81
2022/08/02 03:23:41;;;;;;;10.63;2.38;;;;;;;23.09;100.00;100513.13;5050381;28;20035;-81
2022/08/02 03:26:08;;;;;;;5.88;1.90;;;;;;;23.11;100.00;100512.97;5051519;28;20387;-81
2022/08/02 03:28:33;;;;;;;7.43;1.77;;;;;;;23.28;100.00;100510.91;5051951;28;20051;-81
2022/08/02 03:31:00;;;;;;;6.57;2.15;;;;;;;23.25;100.00;100500.59;5051342;28;20522;-81
2022/08/02 03:33:26;;;;;;;4.28;2.42;;;;;;;23.00;100.00;100506.16;5054847;28;20020;-81
2022/08/02 03:35:53;;;;;;;5.35;1.73;;;;;;;23.17;100.00;100505.00;5070851;28;20051;-81
2022/08/02 03:38:21;;;;;;;5.97;2.20;;;;;;;22.83;100.00;100497.47;5071449;28;20494;-82
2022/08/02 03:40:48;;;;;;;6.35;2.17;;;;;;;22.93;100.00;100498.03;5071475;28;20082;-84
2022/08/02 03:43:14;;;;;;;3.95;2.05;;;;;;;22.71;100.00;100493.56;5070234;28;20025;-83
2022/08/02 03:45:46;;;;;;;5.28;2.10;;;;;;;23.24;100.00;100496.22;5074169;28;20030;-81
2022/08/02 03:48:13;;;;;;;6.13;1.70;;;;;;;23.11;100.00;100499.56;5071500;28;20033;-82
2022/08/02 03:50:40;;;;;;;7.03;1.98;;;;;;;23.01;100.00;100493.63;5053176;28;20386;-82
2022/08/02 03:53:06;;;;;;;7.90;2.05;;;;;;;22.83;100.00;100486.78;5053576;28;20028;-82
2022/08/02 03:55:33;;;;;;;7.47;1.73;;;;;;;22.90;100.00;100487.69;5054979;28;20379;-82
2022/08/02 03:57:59;;;;;;;4.45;1.80;;;;;;;22.60;100.00;100497.50;5054857;28;20036;-82
2022/08/02 04:00:24;;;;;;;2.85;1.55;;;;;;;22.80;100.00;100487.13;5055478;28;20021;-82
2022/08/02 04:02:50;;;;;;;9.82;2.05;;;;;;;22.86;100.00;100491.75;5056052;28;20394;-82
2022/08/02 04:05:17;;;;;;;6.78;1.70;;;;;;;22.77;100.00;100488.31;5072312;28;20115;-82
2022/08/02 04:07:42;;;;;;;9.25;2.15;;;;;;;22.57;100.00;100485.34;5073888;28;20020;-82
2022/08/02 04:10:09;;;;;;;11.10;2.20;;;;;;;22.54;100.00;100482.19;5074888;28;20036;-82
2022/08/02 04:12:35;;;;;;;5.00;1.52;;;;;;;22.65;100.00;100479.09;5074731;28;20016;-82
2022/08/02 04:15:04;;;;;;;5.47;2.13;;;;;;;22.64;100.00;100479.25;5073450;28;20025;-82
2022/08/02 04:17:32;;;;;;;9.20;2.03;;;;;;;22.65;100.00;100489.78;5071137;28;20024;-82
2022/08/02 04:20:20;;;;;;;10.65;1.88;;;;;;;22.78;100.00;100481.13;5052559;28;20544;-82
2022/08/02 04:22:59;;;;;;;6.32;2.65;;;;;;;22.69;100.00;100485.72;5052801;28;20079;-82
2022/08/02 04:25:26;;;;;;;8.65;2.20;;;;;;;22.54;100.00;100488.34;5052953;28;20036;-82
2022/08/02 04:27:52;;;;;;;5.72;1.90;;;;;;;22.84;100.00;100483.06;5054877;28;20056;-82
2022/08/02 04:30:19;;;;;;;5.38;1.75;;;;;;;22.71;100.00;100490.88;5054189;28;20078;-81
2022/08/02 04:32:45;;;;;;;8.85;2.53;;;;;;;22.83;100.00;100497.47;5058888;28;20039;-82
2022/08/02 04:35:11;;;;;;;7.55;2.08;;;;;;;22.81;100.00;100486.13;5073287;28;20028;-81
2022/08/02 04:37:37;;;;;;;6.88;2.33;;;;;;;22.95;100.00;100496.00;5067396;28;20533;-81
2022/08/02 04:40:08;;;;;;;5.38;1.48;;;;;;;23.04;100.00;100491.41;5072567;28;20097;-81
2022/08/02 04:42:33;;;;;;;5.00;1.80;;;;;;;22.60;100.00;100496.69;5072708;28;20017;-81
2022/08/02 04:44:59;;;;;;;3.67;1.75;;;;;;;22.64;100.00;100493.47;5074074;28;20364;-81
2022/08/02 04:47:24;;;;;;;7.53;1.60;;;;;;;22.37;100.00;100493.03;5067010;28;20024;-81
2022/08/02 04:49:49;;;;;;;7.63;2.00;;;;;;;22.74;100.00;100486.00;5053432;28;20441;-81
2022/08/02 04:52:15;;;;;;;6.90;1.70;;;;;;;22.76;100.00;100491.19;5053881;28;20037;-81
2022/08/02 04:54:40;;;;;;;8.40;1.80;;;;;;;22.65;100.00;100481.75;5053710;28;20021;-81
2022/08/02 04:57:53;;;;;;;;;;;;;;;22.62;100.00;100483.97;5069624;28;19970;-81
2022/08/02 04:59:50;;;;;;;4.55;1.52;;;;;;;22.54;100.00;100480.31;5072503;28;19924;-81
2022/08/02 05:02:16;;;;;;;;;;;;;;;22.56;100.00;100483.66;5063442;28;20360;-81
2022/08/02 05:04:41;;;;;;;;;;;;;;;22.64;100.00;100488.09;5057104;28;19920;-81
2022/08/02 05:07:06;;;;;;;;;;;;;;;22.49;100.00;100490.75;5068846;28;19916;-82
2022/08/02 05:09:31;;;;;;;;;;;;;;;22.56;100.00;100491.69;5071639;28;20333;-82
2022/08/02 05:11:57;;;;;;;;;;;;;;;22.82;100.00;100486.94;5068897;28;19917;-82
2022/08/02 05:14:22;;;;;;;;;;;;;;;23.00;100.00;100491.94;5067355;28;19924;-81
2022/08/02 05:16:47;;;;;;;;;;;;;;;23.04;100.00;100493.28;5063083;28;19928;-82
2022/08/02 05:19:12;;;;;;;;;;;;;;;22.66;100.00;100494.09;5047926;28;19924;-82
2022/08/02 05:21:37;;;;;;;;;;;;;;;22.96;100.00;100502.19;5068309;28;20350;-81
2022/08/02 05:24:03;;;;;;;;;;;;;;;22.95;100.00;100498.69;5068715;28;19955;-82
2022/08/02 05:26:28;;;;;;;;;;;;;;;23.14;100.00;100496.50;5068421;28;19974;-81
2022/08/02 05:28:53;;;;;;;8.52;2.05;;;;;;;22.97;100.00;100499.34;5067037;28;19917;-81
2022/08/02 05:31:19;;;;;;;5.80;1.80;;;;;;;23.01;100.00;100502.47;5048731;28;20479;-81
2022/08/02 05:33:44;;;;;;;8.18;1.23;;;;;;;23.13;100.00;100502.88;5046587;28;20060;-81
2022/08/02 05:36:09;;;;;;;10.95;1.90;;;;;;;22.78;100.00;100499.84;5064503;28;20063;-81
2022/08/02 05:38:36;;;;;;;4.45;1.55;;;;;;;22.74;100.00;100496.69;5067814;28;20033;-81
2022/08/02 05:41:01;;;;;;;6.60;1.98;;;;;;;22.72;100.00;100506.75;5068050;28;20564;-82
2022/08/02 05:43:26;;;;;;;3.22;1.73;;;;;;;23.10;100.00;100496.03;5067625;28;20029;-82
2022/08/02 05:45:52;;;;;;;5.22;1.52;;;;;;;23.09;100.00;100493.56;5061496;28;20028;-81
2022/08/02 05:48:17;;;;;;;4.88;1.63;;;;;;;23.26;100.00;100491.50;5060362;28;20033;-82
2022/08/02 05:50:44;;;;;;;;;;;;;;;23.04;100.00;100493.28;5047167;28;20483;-81
2022/08/02 05:53:09;;;;;;;;;;;;;;;23.15;100.00;100495.50;5048031;28;19963;-82
2022/08/02 05:55:39;;;;;;;;;;;;;;;23.00;100.00;100494.63;5060233;28;20389;-81
2022/08/02 05:58:16;;;;;;;;;;;;;;;22.97;100.00;100493.97;5067989;28;19917;-80
2022/08/02 06:00:43;;;;;;;;;;;;;;;23.36;100.00;100492.91;5048863;28;19921;-82
2022/08/02 06:03:28;;;;;;;;;;;;;;;23.39;100.00;100493.56;5053783;28;19920;-81
2022/08/02 06:06:04;;;;;;;8.25;2.05;;;;;;;23.87;100.00;100483.22;5067078;28;19920;-80
2022/08/02 06:08:41;;;;;;;;;;;;;;;23.61;100.00;100489.91;5066831;28;20068;-80
2022/08/02 06:11:11;;;;;;;;;;;;;;;23.54;100.00;100486.34;5062254;28;19920;-81
2022/08/02 06:13:36;;;;;;;;;;;;;;;23.87;100.00;100484.06;5056089;28;19925;-80
2022/08/02 06:16:02;;;;;;;;;;;;;;;23.69;100.00;100481.75;5063070;28;19931;-81
2022/08/02 06:18:28;;;;;;;;;;;;;;;23.80;100.00;100482.34;5066523;28;20022;-81
2022/08/02 06:20:54;;;;;;;;;;;;;;;23.60;100.00;100488.25;5062635;28;19920;-83
2022/08/02 06:23:20;;;;;;;;;;;;;;;23.71;100.00;100482.41;5057765;28;19975;-81
2022/08/02 06:25:46;;;;;;;;;;;;;;;23.74;100.00;100492.75;5059958;28;20362;-81
2022/08/02 06:28:12;;;;;;;;;;;;;;;23.70;100.00;100494.16;5056607;28;19929;-82
2022/08/02 06:30:38;;;;;;;;;;;;;;;23.72;100.00;100494.78;5047290;28;19924;-82
2022/08/02 06:33:03;;;;;;;;;;;;;;;24.10;100.00;100501.84;5052872;28;19924;-82
2022/08/02 06:35:34;;;;;;;;;;;;;;;23.92;100.00;100497.72;5062861;28;19924;-82
2022/08/02 06:38:00;;;;;;;;;;;;;;;23.87;100.00;100505.50;5066455;28;19924;-82
2022/08/02 06:40:26;;;;;;;;;;;;;;;23.75;100.00;100507.81;5066307;28;19928;-83
2022/08/02 06:43:16;;;;;;;5.90;1.40;;;;;;;23.40;100.00;100508.59;5065458;28;20034;-83
2022/08/02 06:45:42;;;;;;;3.65;0.93;;;;;;;24.08;100.00;100504.72;5066374;28;20559;-81
2022/08/02 06:48:08;;;;;;;2.50;0.75;;;;;;;24.29;100.00;100513.78;5067038;28;20052;-83
2022/08/02 06:50:36;;;;;;;2.58;0.45;;;;;;;24.62;100.00;100508.75;5063663;28;20024;-83
2022/08/02 06:53:02;;;;;;;1.80;0.73;;;;;;;24.47;100.00;100508.81;5066685;28;20039;-82
2022/08/02 06:55:31;;;;;;;4.80;1.05;;;;;;;24.29;100.00;100500.34;5066274;28;20347;-82
2022/08/02 06:57:56;;;;;;;7.13;0.70;;;;;;;24.23;100.00;100509.19;5063547;28;20032;-82
2022/08/02 07:00:22;;;;;;;7.90;0.98;;;;;;;24.89;99.53;100512.47;5062840;28;20028;-82
2022/08/02 07:02:49;;;;;;;3.63;0.52;;;;;;;24.81;99.57;100503.75;5071708;28;20082;-83
2022/08/02 07:05:14;;;;;;;7.65;1.70;;;;;;;25.00;98.41;100511.13;5051340;28;20025;-82
2022/08/02 07:07:39;;;;;;;5.10;0.80;;;;;;;24.84;99.16;100516.75;5065001;28;20035;-82
2022/08/02 07:10:05;;;;;;;4.25;0.47;;;;;;;24.43;100.00;100515.59;5068812;28;20108;-82
2022/08/02 07:12:32;;;;;;;2.85;0.43;;;;;;;24.99;98.39;100524.72;5071724;28;20470;-82
2022/08/02 07:15:04;;;;;;;2.13;0.30;;;;;;;24.86;98.36;100518.25;5070621;28;20483;-81
2022/08/02 07:17:30;;;;;;;1.75;0.32;;;;;;;24.93;97.57;100520.97;5071549;28;20032;-82
2022/08/02 07:19:56;;;;;;;3.03;0.80;;;;;;;25.40;96.27;100516.75;5056870;28;20037;-81
2022/08/02 07:22:23;;;;;;;3.17;0.68;;;;;;;25.07;96.71;100525.41;5055569;28;20032;-82
2022/08/02 07:24:49;;;;;;;5.10;0.60;;;;;;;24.79;97.73;100516.53;5055944;28;20474;-81
2022/08/02 07:27:14;;;;;;;1.50;0.70;;;;;;;25.10;97.21;100526.88;5058467;28;20033;-81
2022/08/02 07:29:40;;;;;;;1.67;0.40;;;;;;;24.67;99.76;100526.97;5064414;28;20126;-82
2022/08/02 07:32:06;;;;;;;1.90;0.50;;;;;;;25.03;98.77;100534.06;5058737;28;20051;-81
2022/08/02 07:34:31;;;;;;;4.50;1.17;;;;;;;24.37;100.00;100527.09;5073442;28;20035;-81
2022/08/02 07:36:57;;;;;;;7.43;0.40;;;;;;;24.95;99.86;100524.28;5095545;28;20036;-81
2022/08/02 07:39:22;;;;;;;6.35;0.55;;;;;;;24.54;100.00;100533.88;5077619;28;20368;-81
2022/08/02 07:41:50;;;;;;;;;;;;;;;24.25;100.00;100523.22;5055363;28;20035;-81
2022/08/02 07:44:16;;;;;;;;;;;;;;;24.90;99.93;100522.19;5055457;28;19920;-81
2022/08/02 07:46:41;;;;;;;;;;;;;;;24.79;100.00;100524.59;5062014;28;20286;-80
2022/08/02 07:49:06;;;;;;;;;;;;;;;25.03;99.43;100536.75;5074454;28;20281;-81
2022/08/02 07:51:32;;;;;;;;;;;;;;;25.28;99.02;100529.09;5074970;28;19912;-81
2022/08/02 07:53:57;;;;;;;5.75;0.52;;;;;;;24.79;99.86;100527.28;5067697;28;19924;-81
2022/08/02 07:56:22;;;;;;;4.10;0.60;;;;;;;25.33;98.56;100530.13;5074337;28;20486;-81
2022/08/02 07:58:48;;;;;;;2.85;0.40;;;;;;;25.39;99.19;100533.06;5073334;28;20044;-80
2022/08/02 08:01:13;;;;;;;2.08;0.65;;;;;;;25.28;99.65;100537.97;5069466;28;20029;-82
2022/08/02 08:03:39;;;;;;;1.13;0.50;;;;;;;25.32;98.83;100536.56;5054627;28;20389;-82
2022/08/02 08:06:04;;;;;;;;;;;;;;;25.40;98.36;100543.63;5058685;28;20052;-82
2022/08/02 08:08:29;;;;;;;;;;;;;;;25.27;100.00;100532.78;5054939;28;19916;-82
2022/08/02 08:10:54;;;;;;;;;;;;;;;25.00;99.59;100542.50;5054846;28;19928;-82
2022/08/02 08:13:20;;;;;;;;;;;;;;;24.84;99.85;100536.41;5055031;28;20404;-80
2022/08/02 08:15:45;;;;;;;;;;;;;;;24.91;100.00;100547.19;5062713;28;20373;-81
2022/08/02 08:18:10;;;;;;;;;;;;;;;25.40;98.98;100548.19;5073468;28;19955;-81
2022/08/02 08:20:36;;;;;;;;;;;;;;;25.07;99.98;100543.38;5074048;28;20333;-81
2022/08/02 08:23:01;;;;;;;;;;;;;;;24.62;100.00;100532.91;5073713;28;20011;-81
2022/08/02 08:25:26;;;;;;;;;;;;;;;25.18;99.33;100536.63;5073912;28;19924;-83
2022/08/02 08:27:52;;;;;;;;;;;;;;;25.21;99.45;100528.19;5074574;28;20019;-81
2022/08/02 08:30:18;;;;;;;;;;;;;;;24.74;100.00;100527.84;5057810;28;19912;-82
2022/08/02 08:32:43;;;;;;;;;;;;;;;24.88;100.00;100529.63;5054656;28;19925;-81
2022/08/02 08:35:08;;;;;;;;;;;;;;;24.69;100.00;100527.59;5054406;28;20392;-81
2022/08/02 08:37:38;;;;;;;;;;;;;;;24.92;99.99;100519.28;5054731;28;19920;-82
2022/08/02 08:40:06;;;;;;;;;;;;;;;25.46;97.98;100526.69;5064634;28;19947;-81
2022/08/02 08:42:32;;;;;;;;;;;;;;;24.80;99.76;100527.06;5054223;28;20378;-81
2022/08/02 08:44:58;;;;;;;;;;;;;;;25.23;98.25;100521.59;5072139;28;19923;-81
2022/08/02 08:47:27;;;;;;;;;;;;;;;25.65;95.19;100517.06;5054205;28;19916;-81
2022/08/02 08:49:54;;;;;;;;;;;;;;;25.84;95.43;100512.78;5054252;28;20488;-82
2022/08/02 08:52:22;;;;;;;;;;;;;;;25.94;94.07;100508.91;5054269;28;20382;-82
2022/08/02 08:54:48;;;;;;;3.05;0.68;;;;;;;26.29;92.48;100505.06;5053765;28;19917;-82
2022/08/02 08:57:14;;;;;;;;;;;;;;;26.70;90.44;100516.72;5054526;28;20035;-82
2022/08/02 08:59:40;;;;;;;;;;;;;;;26.74;89.27;100509.03;5054156;28;20301;-82
2022/08/02 09:02:05;;;;;;;;;;;;;;;26.02;92.35;100512.25;5063291;28;19917;-82
2022/08/02 09:04:31;;;;;;;;;;;;;;;26.05;91.21;100514.53;5054110;28;20008;-82
2022/08/02 09:06:56;;;;;;;;;;;;;;;26.33;90.69;100510.84;5053690;28;19924;-82
2022/08/02 09:09:21;;;;;;;;;;;;;;;26.66;88.16;100519.00;5057285;28;19967;-82
2022/08/02 09:11:46;;;;;;;;;;;;;;;26.22;90.56;100517.66;5062962;28;20455;-82
2022/08/02 09:14:24;;;;;;;;;;;;;;;26.35;90.36;100513.34;5071128;28;19923;-82
2022/08/02 09:16:49;;;;;;;;;;;;;;;26.57;90.32;100497.81;5054772;28;19919;-82
2022/08/02 09:19:24;;;;;;;;;;;;;;;26.95;88.99;100505.28;5053520;28;20003;-82
2022/08/02 09:21:50;;;;;;;;;;;;;;;26.50;88.13;100498.66;5063667;28;19956;-82
2022/08/02 09:24:21;;;;;;;;;;;;;;;26.89;88.73;100505.06;5074313;28;19916;-83
2022/08/02 09:26:47;;;;;;;;;;;;;;;26.64;88.50;100507.59;5071539;28;19946;-82
2022/08/02 09:29:13;;;;;;;;;;;;;;;26.95;87.44;100500.72;5058371;28;19969;-82
2022/08/02 09:31:38;;;;;;;3.50;0.65;;;;;;;26.63;87.42;100497.84;5072944;28;20446;-82
2022/08/02 09:34:03;;;;;;;;;;;;;;;26.16;89.52;100498.81;5054166;28;20233;-82
2022/08/02 09:36:39;;;;;;;;;;;;;;;26.38;89.47;100502.97;5059707;28;19916;-82
2022/08/02 09:39:06;;;;;;;;;;;;;;;26.57;88.92;100501.34;5054022;28;19909;-82
2022/08/02 09:41:36;;;;;;;;;;;;;;;26.25;89.92;100503.00;5062293;28;19917;-82
2022/08/02 09:44:03;;;;;;;;;;;;;;;26.14;91.23;100500.88;5063671;28;19981;-83
2022/08/02 09:46:31;;;;;;;;;;;;;;;26.08;91.25;100502.53;5072369;28;19923;-83
2022/08/02 09:48:56;;;;;;;;;;;;;;;26.20;91.35;100505.44;5069944;28;19924;-83
2022/08/02 09:51:25;;;;;;;;;;;;;;;26.39;89.64;100504.66;5060042;28;19939;-83
2022/08/02 09:53:52;;;;;;;;;;;;;;;26.00;89.81;100506.22;5053098;28;19913;-83
2022/08/02 09:56:18;;;;;;;1.02;0.35;;;;;;;26.29;89.35;100510.44;5065502;28;19916;-82
2022/08/02 09:58:44;;;;;;;4.13;0.45;;;;;;;26.13;90.37;100497.38;5064480;28;20029;-82
2022/08/02 10:01:09;;;;;;;6.28;0.50;;;;;;;26.54;88.04;100507.16;5070521;28;20035;-83
2022/08/02 10:03:35;;;;;;;;;;;;;;;26.69;87.67;100505.09;5057539;28;20036;-82
2022/08/02 10:06:03;;;;;;;;;;;;;;;26.86;86.85;100505.50;5057103;28;20352;-83
2022/08/02 10:08:29;;;;;;;;;;;;;;;26.51;87.55;100508.38;5052838;28;19913;-83
2022/08/02 10:11:00;;;;;;;;;;;;;;;26.48;88.85;100508.81;5052966;28;19913;-83
2022/08/02 10:13:27;;;;;;;;;;;;;;;26.63;88.29;100521.25;5059149;28;19920;-83
2022/08/02 10:15:52;;;;;;;;;;;;;;;26.39;89.29;100520.81;5052620;28;20094;-83
2022/08/02 10:18:18;;;;;;;;;;;;;;;27.08;86.83;100510.66;5052910;28;19913;-83
2022/08/02 10:20:44;;;;;;;;;;;;;;;26.70;87.47;100509.44;5052902;28;19916;-83
2022/08/02 10:23:12;;;;;;;;;;;;;;;27.18;86.00;100524.50;5052957;28;19913;-83
2022/08/02 10:25:37;;;;;;;;;;;;;;;27.37;86.22;100519.31;5052632;28;19914;-83
2022/08/02 10:28:05;;;;;;;;;;;;;;;26.71;89.42;100518.34;5052129;28;19924;-83
2022/08/02 10:30:30;;;;;;;;;;;;;;;27.06;88.46;100518.13;5053113;28;19913;-83
2022/08/02 10:32:57;;;;;;;;;;;;;;;28.33;83.93;100513.03;5062425;28;19985;-82
2022/08/02 10:35:24;;;;;;;2.00;0.30;;;;;;;28.55;83.52;100520.78;5062336;28;20337;-82
2022/08/02 10:37:53;;;;;;;3.53;0.35;;;;;;;28.37;83.82;100525.06;5051743;28;19920;-83
2022/08/02 10:40:22;;;;;;;3.25;0.30;;;;;;;27.56;87.65;100537.28;5052141;28;20025;-83
2022/08/02 10:42:52;;;;;;;3.90;0.50;;;;;;;27.54;90.18;100536.69;5052111;28;20025;-83
2022/08/02 10:45:20;;;;;;;6.97;0.38;;;;;;;27.59;90.60;100528.78;5052178;28;19924;-83
2022/08/02 10:48:15;;;;;;;;;;;;;;;27.48;90.40;100529.44;5070630;28;20032;-83
2022/08/02 10:50:46;;;;;;;2.58;0.60;;;;;;;27.28;90.58;100524.94;5050379;28;20007;-81
2022/08/02 10:53:18;;;;;;;;;;;;;;;27.70;88.42;100536.19;5051962;28;20100;-82
2022/08/02 10:55:44;;;;;;;2.28;0.50;;;;;;;27.55;87.56;100529.41;5051605;28;19919;-83
2022/08/02 10:58:21;;;;;;;2.97;0.30;;;;;;;27.73;89.00;100523.34;5051700;28;20060;-83
2022/08/02 11:00:49;;;;;;;4.35;0.57;;;;;;;28.48;83.89;100524.34;5051510;28;20490;-83
2022/08/02 11:03:38;;;;;;;3.90;0.40;;;;;;;28.80;81.54;100516.22;5061963;28;20069;-83
2022/08/02 11:06:05;;;;;;;15.00;0.50;;;;;;;29.01;79.40;100520.38;5050130;28;20119;-83
2022/08/02 11:08:31;;;;;;;4.95;0.52;;;;;;;29.40;76.61;100523.72;5051438;28;20032;-83
2022/08/02 11:11:14;;;;;;;4.30;0.50;;;;;;;29.53;76.18;100520.06;5051683;28;20029;-83
2022/08/02 11:14:01;;;;;;;0.98;0.20;;;;;;;29.60;72.82;100520.81;5051402;28;20025;-82
2022/08/02 11:16:54;;;;;;;3.28;0.30;;;;;;;29.76;71.84;100510.41;5051775;28;20033;-83
2022/08/02 11:19:24;;;;;;;3.70;0.47;;;;;;;29.70;70.59;100508.59;5066016;28;20111;-83
2022/08/02 11:22:15;;;;;;;1.23;0.22;;;;;;;30.02;70.16;100510.06;5071889;28;20021;-83
2022/08/02 11:24:40;;;;;;;3.13;0.43;;;;;;;29.74;70.27;100507.97;5070439;28;20025;-83
2022/08/02 11:27:07;;;;;;;4.82;0.50;;;;;;;28.94;72.51;100510.69;5071326;28;20295;-84
2022/08/02 11:29:35;;;;;;;4.78;0.95;;;;;;;28.37;75.21;100508.84;5071468;28;20024;-83
2022/08/02 11:32:00;;;;;;;1.40;0.45;;;;;;;28.67;73.47;100510.94;5051319;28;20025;-83
2022/08/02 11:34:27;;;;;;;4.28;0.32;;;;;;;27.95;76.48;100513.91;5068898;28;20029;-83
2022/08/02 11:36:53;;;;;;;3.47;0.70;;;;;;;28.43;75.41;100509.84;5071645;28;20025;-83
2022/08/02 11:39:22;;;;;;;2.65;0.60;;;;;;;27.88;80.21;100519.34;5071429;28;20095;-83
2022/08/02 11:41:53;;;;;;;3.63;1.00;;;;;;;27.89;81.68;100515.59;5071558;28;20043;-83
2022/08/02 11:44:18;;;;;;;;;;;;;;;27.46;83.45;100512.66;5072108;28;20039;-82
2022/08/02 11:46:44;;;;;;;;;;;;;;;27.80;80.64;100499.84;5051995;28;19916;-82